Time;durP1;ratioP1;P1;durP2;ratioP2;P2;SDS_P1;SDS_P2;PMS_P1;PMS_P2;Temp;Humidity;BMP_temperature;BMP_pressure;BME280_temperature;BME280_humidity;BME280_pressure;Samples;Min_cycle;Max_cycle;Signal;HPM_P1;HPM_P2
2023/09/30 00:00:58;;;;;;;11.50;5.22;;;;;;;15.65;100.00;96930.25;6339765;22;20069;-64
2023/09/30 00:03:23;;;;;;;6.03;5.40;;;;;;;15.62;100.00;96935.84;6339963;22;20034;-64
2023/09/30 00:05:48;;;;;;;5.65;5.05;;;;;;;15.56;100.00;96923.13;6340437;22;20387;-64
2023/09/30 00:08:14;;;;;;;8.18;5.70;;;;;;;15.51;100.00;96928.03;6340184;22;20476;-65
2023/09/30 00:10:39;;;;;;;7.65;6.03;;;;;;;15.47;100.00;96932.78;6339920;22;20021;-64
2023/09/30 00:13:06;;;;;;;7.03;5.30;;;;;;;15.47;100.00;96930.97;6338790;22;20090;-64
2023/09/30 00:15:35;;;;;;;8.45;5.32;;;;;;;15.51;100.00;96930.69;6340252;22;19998;-64
2023/09/30 00:18:01;;;;;;;9.38;5.70;;;;;;;15.46;100.00;96920.50;6339301;22;20005;-64
2023/09/30 00:20:27;;;;;;;9.43;5.30;;;;;;;15.45;100.00;96929.44;6311923;22;20052;-64
2023/09/30 00:22:52;;;;;;;6.25;5.68;;;;;;;15.43;100.00;96924.28;6339616;22;20355;-64
2023/09/30 00:25:18;;;;;;;8.13;5.70;;;;;;;15.40;100.00;96915.75;6339985;22;20079;-64
2023/09/30 00:27:43;;;;;;;9.02;5.28;;;;;;;15.40;100.00;96915.75;6312306;22;20066;-64
2023/09/30 00:30:09;;;;;;;8.82;5.43;;;;;;;15.34;100.00;96906.53;6341063;22;20033;-64
2023/09/30 00:32:34;;;;;;;7.20;5.32;;;;;;;15.31;100.00;96917.44;6341248;22;20006;-64
2023/09/30 00:35:03;;;;;;;8.18;6.18;;;;;;;15.24;100.00;96913.69;6341631;22;20060;-64
2023/09/30 00:37:28;;;;;;;10.13;5.43;;;;;;;15.21;100.00;96906.84;6341632;22;19999;-64
2023/09/30 00:39:53;;;;;;;5.90;5.40;;;;;;;15.18;100.00;96913.28;6340961;22;20052;-64
2023/09/30 00:42:20;;;;;;;6.85;5.30;;;;;;;15.16;100.00;96922.34;6341560;22;19995;-64
2023/09/30 00:44:46;;;;;;;9.15;6.05;;;;;;;15.11;100.00;96911.34;6341678;22;20003;-64
2023/09/30 00:47:14;;;;;;;6.53;5.72;;;;;;;15.06;100.00;96911.75;6341837;22;20005;-64
2023/09/30 00:49:42;;;;;;;6.50;5.65;;;;;;;15.03;100.00;96922.63;6341788;22;19991;-64
2023/09/30 00:52:07;;;;;;;7.20;6.22;;;;;;;15.02;100.00;96927.09;6341716;22;19998;-64
2023/09/30 00:54:33;;;;;;;9.98;6.18;;;;;;;14.98;100.00;96923.03;6341927;22;20420;-64
2023/09/30 00:57:00;;;;;;;7.75;5.93;;;;;;;14.95;100.00;96925.97;6341110;22;19998;-64
2023/09/30 00:59:26;;;;;;;7.03;5.80;;;;;;;14.93;100.00;96924.47;6341291;22;20086;-65
2023/09/30 01:01:54;;;;;;;8.13;5.90;;;;;;;14.92;100.00;96914.81;6341232;22;20003;-64
2023/09/30 01:04:20;;;;;;;8.88;5.75;;;;;;;14.86;100.00;96914.38;6341029;22;19990;-65
2023/09/30 01:06:47;;;;;;;6.20;5.43;;;;;;;14.81;100.00;96906.03;6341406;22;20048;-64
2023/09/30 01:09:13;;;;;;;7.30;5.70;;;;;;;14.82;100.00;96907.69;6313560;22;20590;-64
2023/09/30 01:11:40;;;;;;;6.65;5.38;;;;;;;14.81;100.00;96906.03;6341495;22;19999;-64
2023/09/30 01:14:26;;;;;;;7.30;5.38;;;;;;;14.79;100.00;96902.69;6340803;22;20029;-64
2023/09/30 01:16:52;;;;;;;7.05;5.47;;;;;;;14.76;100.00;96895.00;6341463;22;20006;-64
2023/09/30 01:19:18;;;;;;;7.43;5.90;;;;;;;14.73;100.00;96890.81;6341539;22;20370;-64
2023/09/30 01:21:48;;;;;;;6.72;6.03;;;;;;;14.73;100.00;96882.03;6340919;22;20470;-64
2023/09/30 01:24:16;;;;;;;8.63;6.10;;;;;;;14.73;100.00;96885.50;6341122;22;20003;-64
2023/09/30 01:26:42;;;;;;;9.80;5.75;;;;;;;14.69;100.00;96876.13;6340992;22;19998;-64
2023/09/30 01:29:11;;;;;;;8.32;6.50;;;;;;;14.66;100.00;96879.06;6341422;22;20337;-64
2023/09/30 01:31:38;;;;;;;8.85;6.35;;;;;;;14.64;100.00;96883.66;6340767;22;20002;-64
2023/09/30 01:34:04;;;;;;;9.88;5.93;;;;;;;14.63;100.00;96878.50;6341715;22;20018;-64
2023/09/30 01:36:29;;;;;;;7.60;5.50;;;;;;;14.63;100.00;96874.03;6341128;22;20021;-64
2023/09/30 01:38:55;;;;;;;7.93;5.88;;;;;;;14.60;100.00;96883.09;6313633;22;20007;-65
2023/09/30 01:41:20;;;;;;;6.32;5.65;;;;;;;14.59;100.00;96878.78;6340434;22;20573;-64
2023/09/30 01:43:46;;;;;;;9.02;5.38;;;;;;;14.57;100.00;96878.06;6341278;22;20423;-64
2023/09/30 01:46:12;;;;;;;8.15;5.80;;;;;;;14.55;100.00;96885.31;6340709;22;19999;-65
2023/09/30 01:48:37;;;;;;;9.98;5.78;;;;;;;14.51;100.00;96889.22;6340970;22;20001;-64
2023/09/30 01:51:03;;;;;;;7.93;5.80;;;;;;;14.48;100.00;96886.88;6341583;22;20411;-65
2023/09/30 01:53:28;;;;;;;6.82;5.75;;;;;;;14.47;100.00;96893.09;6340973;22;20002;-64
2023/09/30 01:55:54;;;;;;;7.07;5.10;;;;;;;14.41;100.00;96891.88;6341479;22;20003;-64
2023/09/30 01:58:19;;;;;;;6.82;5.78;;;;;;;14.40;100.00;96899.94;6340380;22;20452;-64
2023/09/30 02:00:45;;;;;;;9.48;5.78;;;;;;;14.36;100.00;96901.19;6341568;22;20013;-64
2023/09/30 02:03:11;;;;;;;7.50;5.28;;;;;;;14.35;100.00;96899.50;6340249;22;20009;-64
2023/09/30 02:05:38;;;;;;;8.35;5.50;;;;;;;14.33;100.00;96900.50;6341130;22;19994;-64
2023/09/30 02:08:05;;;;;;;6.68;5.63;;;;;;;14.30;100.00;96903.41;6313300;22;20051;-64
2023/09/30 02:10:33;;;;;;;6.97;5.70;;;;;;;14.25;100.00;96905.59;6340859;22;20002;-64
2023/09/30 02:12:59;;;;;;;8.38;5.78;;;;;;;14.23;100.00;96893.50;6340420;22;19995;-65
2023/09/30 02:15:25;;;;;;;6.90;5.75;;;;;;;14.24;100.00;96889.88;6340998;22;20005;-64
2023/09/30 02:17:50;;;;;;;7.43;5.70;;;;;;;14.23;100.00;96891.66;6340711;22;20026;-64
2023/09/30 02:20:19;;;;;;;6.35;5.55;;;;;;;14.24;100.00;96888.03;6313447;22;20052;-64
2023/09/30 02:22:45;;;;;;;9.15;6.20;;;;;;;14.20;100.00;96885.81;6340357;22;20070;-64
2023/09/30 02:25:12;;;;;;;6.65;5.72;;;;;;;14.12;100.00;96876.72;6312674;22;20085;-64
2023/09/30 02:27:44;;;;;;;8.95;6.05;;;;;;;14.13;100.00;96874.94;6340166;22;19998;-64
2023/09/30 02:30:10;;;;;;;7.00;6.00;;;;;;;14.12;100.00;96868.78;6340544;22;19999;-64
2023/09/30 02:32:38;;;;;;;7.78;5.63;;;;;;;14.09;100.00;96877.00;6339430;22;20005;-64
2023/09/30 02:35:06;;;;;;;6.78;5.28;;;;;;;14.04;100.00;96877.41;6341043;22;20012;-64
2023/09/30 02:37:35;;;;;;;7.25;5.93;;;;;;;14.03;100.00;96875.72;6340968;22;19999;-64
2023/09/30 02:40:09;;;;;;;8.73;5.82;;;;;;;14.01;100.00;96869.72;6340655;22;20007;-64
2023/09/30 02:42:39;;;;;;;9.27;5.70;;;;;;;14.02;100.00;96879.34;6339730;22;19998;-64
2023/09/30 02:45:05;;;;;;;7.38;5.53;;;;;;;14.02;100.00;96874.03;6340554;22;20119;-64
2023/09/30 02:47:31;;;;;;;10.50;6.25;;;;;;;13.98;100.00;96870.00;6340553;22;20002;-64
2023/09/30 02:49:58;;;;;;;6.63;5.68;;;;;;;13.94;100.00;96867.78;6340528;22;20002;-64
2023/09/30 02:52:27;;;;;;;7.38;5.88;;;;;;;13.91;100.00;96860.94;6340127;22;20002;-64
2023/09/30 02:54:52;;;;;;;8.18;5.95;;;;;;;13.92;100.00;96862.59;6340416;22;20006;-66
2023/09/30 02:57:19;;;;;;;8.32;5.70;;;;;;;13.90;100.00;96853.97;6341400;22;20052;-65
2023/09/30 02:59:44;;;;;;;9.32;5.90;;;;;;;13.87;100.00;96863.00;6340482;22;19998;-64
2023/09/30 03:02:11;;;;;;;6.90;5.88;;;;;;;13.82;100.00;96843.22;6340428;22;20055;-64
2023/09/30 03:04:37;;;;;;;6.68;5.97;;;;;;;13.80;100.00;96839.84;6340245;22;20003;-64
2023/09/30 03:07:02;;;;;;;7.97;6.30;;;;;;;13.80;100.00;96830.09;6340716;22;20001;-64
2023/09/30 03:09:28;;;;;;;6.38;5.75;;;;;;;13.81;100.00;96828.28;6340054;22;19995;-64
2023/09/30 03:11:55;;;;;;;10.05;6.22;;;;;;;13.80;100.00;96816.00;6340681;22;19998;-64
2023/09/30 03:14:22;;;;;;;7.63;6.22;;;;;;;13.81;100.00;96812.41;6339704;22;20021;-64
2023/09/30 03:16:48;;;;;;;9.98;6.40;;;;;;;13.75;100.00;96809.31;6340750;22;20039;-64
2023/09/30 03:19:16;;;;;;;7.65;6.18;;;;;;;13.71;100.00;96797.34;6312959;22;20007;-64
2023/09/30 03:21:42;;;;;;;7.13;6.10;;;;;;;13.70;100.00;96789.50;6340707;22;20002;-64
2023/09/30 03:24:08;;;;;;;10.88;6.50;;;;;;;13.72;100.00;96796.38;6339529;22;19998;-64
2023/09/30 03:26:33;;;;;;;6.40;5.80;;;;;;;13.70;100.00;96795.66;6340711;22;20073;-64
2023/09/30 03:28:59;;;;;;;7.78;6.05;;;;;;;13.70;100.00;96800.09;6340141;22;19999;-64
2023/09/30 03:31:25;;;;;;;7.35;6.47;;;;;;;13.65;100.00;96802.31;6339924;22;20002;-64
2023/09/30 03:33:53;;;;;;;7.30;6.13;;;;;;;13.58;100.00;96802.00;6340428;22;20013;-64
2023/09/30 03:36:20;;;;;;;8.63;6.47;;;;;;;13.56;100.00;96794.22;6340201;22;20003;-64
2023/09/30 03:38:45;;;;;;;7.50;5.95;;;;;;;13.58;100.00;96794.06;6340025;22;20040;-64
2023/09/30 03:41:13;;;;;;;7.82;6.40;;;;;;;13.55;100.00;96795.19;6312064;22;20027;-64
2023/09/30 03:43:40;;;;;;;8.32;6.88;;;;;;;13.54;100.00;96800.59;6340048;22;20069;-65
2023/09/30 03:46:09;;;;;;;11.45;7.05;;;;;;;13.51;100.00;96798.22;6339665;22;20069;-65
2023/09/30 03:48:39;;;;;;;9.20;6.40;;;;;;;13.49;100.00;96803.69;6340463;22;20018;-64
2023/09/30 03:51:15;;;;;;;8.80;6.68;;;;;;;13.48;100.00;96803.78;6339859;22;20448;-65
2023/09/30 03:53:44;;;;;;;11.63;6.50;;;;;;;13.49;100.00;96797.53;6339896;22;19994;-64
2023/09/30 03:56:13;;;;;;;9.15;6.75;;;;;;;13.49;100.00;96800.19;6340249;22;20721;-64
2023/09/30 03:58:41;;;;;;;8.15;6.97;;;;;;;13.49;100.00;96793.09;6340341;22;20006;-64
2023/09/30 04:01:06;;;;;;;10.98;6.82;;;;;;;13.47;100.00;96787.06;6340202;22;20013;-64
2023/09/30 04:03:34;;;;;;;10.38;6.13;;;;;;;13.50;100.00;96794.78;6339984;22;20066;-64
2023/09/30 04:06:02;;;;;;;8.52;6.88;;;;;;;13.48;100.00;96798.50;6341827;22;20431;-66
2023/09/30 04:08:28;;;;;;;9.18;6.10;;;;;;;13.44;100.00;96793.47;6341739;22;19995;-64
2023/09/30 04:10:54;;;;;;;12.15;7.00;;;;;;;13.46;100.00;96788.91;6341269;22;19994;-64
2023/09/30 04:13:21;;;;;;;8.45;6.65;;;;;;;13.42;100.00;96787.47;6340257;22;20021;-64
2023/09/30 04:15:46;;;;;;;10.20;7.13;;;;;;;13.39;100.00;96793.03;6314043;22;20006;-64
2023/09/30 04:18:12;;;;;;;9.95;6.95;;;;;;;13.38;100.00;96787.84;6314237;22;20052;-64
2023/09/30 04:20:39;;;;;;;10.02;6.78;;;;;;;13.37;100.00;96792.28;6342190;22;20044;-64
2023/09/30 04:23:06;;;;;;;10.50;7.20;;;;;;;13.37;100.00;96784.34;6340923;22;20003;-64
2023/09/30 04:25:32;;;;;;;12.05;7.18;;;;;;;13.37;100.00;96786.19;6341727;22;20005;-64
2023/09/30 04:27:57;;;;;;;9.55;7.00;;;;;;;13.35;100.00;96788.94;6341454;22;20414;-64
2023/09/30 04:30:22;;;;;;;10.75;7.60;;;;;;;13.32;100.00;96783.91;6341664;22;20442;-64
2023/09/30 04:32:48;;;;;;;8.50;6.80;;;;;;;13.33;100.00;96773.22;6341089;22;19995;-64
2023/09/30 04:35:14;;;;;;;10.15;7.07;;;;;;;13.34;100.00;96776.69;6341756;22;20001;-65
2023/09/30 04:37:40;;;;;;;8.13;7.03;;;;;;;13.37;100.00;96779.06;6341920;22;20028;-64
2023/09/30 04:40:07;;;;;;;10.52;6.53;;;;;;;13.36;100.00;96781.84;6341377;22;20442;-64
2023/09/30 04:42:36;;;;;;;10.70;6.63;;;;;;;13.33;100.00;96775.00;6342257;22;19999;-64
2023/09/30 04:45:03;;;;;;;9.18;6.88;;;;;;;13.32;100.00;96763.63;6341425;22;19998;-64
2023/09/30 04:47:29;;;;;;;12.32;6.72;;;;;;;13.35;100.00;96764.31;6341960;22;19999;-64
2023/09/30 04:49:54;;;;;;;9.95;7.25;;;;;;;13.34;100.00;96763.47;6341649;22;20479;-64
2023/09/30 04:52:20;;;;;;;10.25;7.05;;;;;;;13.32;100.00;96766.25;6341814;22;20444;-65
2023/09/30 04:54:46;;;;;;;9.68;7.10;;;;;;;13.34;100.00;96768.75;6341187;22;20005;-65
2023/09/30 04:57:11;;;;;;;10.88;7.18;;;;;;;13.38;100.00;96772.84;6341613;22;20331;-65
2023/09/30 04:59:37;;;;;;;9.95;7.63;;;;;;;13.40;100.00;96762.09;6341649;22;20018;-65
2023/09/30 05:02:03;;;;;;;8.60;7.10;;;;;;;13.38;100.00;96764.03;6341629;22;20018;-65
2023/09/30 05:04:29;;;;;;;10.52;7.28;;;;;;;13.37;100.00;96773.78;6341589;22;20003;-64
2023/09/30 05:06:55;;;;;;;12.75;7.70;;;;;;;13.39;100.00;96769.22;6341403;22;20009;-65
2023/09/30 05:09:20;;;;;;;7.65;6.63;;;;;;;13.40;100.00;96773.53;6340664;22;20052;-65
2023/09/30 05:11:46;;;;;;;9.75;7.00;;;;;;;13.35;100.00;96773.06;6313859;22;19999;-65
2023/09/30 05:14:11;;;;;;;11.25;7.30;;;;;;;13.31;100.00;96772.53;6308028;22;20046;-65
2023/09/30 05:16:37;;;;;;;12.18;6.72;;;;;;;13.35;100.00;96778.34;6309272;22;20056;-65
2023/09/30 05:19:03;;;;;;;9.80;6.35;;;;;;;13.35;100.00;96780.19;6309771;22;20003;-65
2023/09/30 05:21:29;;;;;;;10.90;6.72;;;;;;;13.37;100.00;96770.31;6308538;22;20003;-65
2023/09/30 05:23:54;;;;;;;8.73;7.28;;;;;;;13.37;100.00;96773.78;6309212;22;19999;-65
2023/09/30 05:26:19;;;;;;;8.65;7.35;;;;;;;13.33;100.00;96769.72;6308573;22;20027;-65
2023/09/30 05:28:46;;;;;;;9.77;7.15;;;;;;;13.32;100.00;96763.63;6310598;22;20025;-65
2023/09/30 05:31:11;;;;;;;13.00;7.03;;;;;;;13.33;100.00;96761.78;6309956;22;19998;-65
2023/09/30 05:33:37;;;;;;;15.55;7.75;;;;;;;13.32;100.00;96771.56;6310178;22;20434;-65
2023/09/30 05:36:03;;;;;;;10.80;7.60;;;;;;;13.34;100.00;96758.19;6307917;22;20002;-65
2023/09/30 05:38:31;;;;;;;11.63;7.10;;;;;;;13.35;100.00;96773.06;6309812;22;19999;-65
2023/09/30 05:40:58;;;;;;;12.55;7.47;;;;;;;13.38;100.00;96778.13;6309807;22;20082;-65
2023/09/30 05:43:24;;;;;;;8.45;6.35;;;;;;;13.45;100.00;96783.72;6308863;22;20392;-65
2023/09/30 05:45:49;;;;;;;13.10;7.22;;;;;;;13.49;100.00;96786.94;6308549;22;20007;-65
2023/09/30 05:48:16;;;;;;;8.43;6.70;;;;;;;13.56;100.00;96783.63;6309710;22;20498;-65
2023/09/30 05:50:43;;;;;;;12.75;6.90;;;;;;;13.64;100.00;96790.91;6309700;22;19999;-65
2023/09/30 05:53:10;;;;;;;9.30;6.65;;;;;;;13.67;100.00;96789.78;6309755;22;19999;-65
2023/09/30 05:55:35;;;;;;;9.60;6.50;;;;;;;13.71;100.00;96785.94;6308988;22;20039;-65
2023/09/30 05:58:01;;;;;;;9.45;6.70;;;;;;;13.77;100.00;96798.63;6309055;22;20086;-65
2023/09/30 06:00:30;;;;;;;8.40;6.45;;;;;;;13.78;100.00;96800.28;6307572;22;19995;-65
2023/09/30 06:02:57;;;;;;;9.70;6.88;;;;;;;13.83;100.00;96807.84;6282721;22;19999;-65
2023/09/30 06:05:22;;;;;;;9.00;6.47;;;;;;;13.86;100.00;96800.44;6308684;22;20075;-65
2023/09/30 06:07:51;;;;;;;10.70;6.68;;;;;;;13.89;100.00;96810.75;6309192;22;20003;-65
2023/09/30 06:10:20;;;;;;;10.82;7.15;;;;;;;13.95;100.00;96800.63;6309005;22;19995;-65
2023/09/30 06:12:54;;;;;;;9.55;6.60;;;;;;;14.02;100.00;96807.84;6310996;22;20068;-65
2023/09/30 06:15:21;;;;;;;14.63;7.50;;;;;;;14.09;100.00;96804.69;6341509;22;20026;-65
2023/09/30 06:17:51;;;;;;;10.45;7.20;;;;;;;14.12;100.00;96799.09;6340583;22;20022;-65
2023/09/30 06:20:18;;;;;;;13.60;7.38;;;;;;;14.21;100.00;96795.63;6341097;22;20063;-65
2023/09/30 06:23:05;;;;;;;10.18;7.50;;;;;;;14.31;100.00;96807.09;6341297;22;20026;-65
2023/09/30 06:25:32;;;;;;;11.25;7.90;;;;;;;14.41;100.00;96811.53;6339352;22;19998;-65
2023/09/30 06:27:58;;;;;;;11.57;7.38;;;;;;;14.45;100.00;96815.56;6338763;22;20336;-65
2023/09/30 06:30:29;;;;;;;10.63;7.22;;;;;;;14.49;100.00;96819.66;6340007;22;20003;-65
2023/09/30 06:32:56;;;;;;;10.38;7.38;;;;;;;14.55;100.00;96827.03;6339324;22;20382;-65
2023/09/30 06:35:21;;;;;;;9.15;7.25;;;;;;;14.62;100.00;96835.28;6340017;22;19998;-65
2023/09/30 06:37:47;;;;;;;11.95;7.68;;;;;;;14.66;100.00;96838.47;6339961;22;20048;-65
2023/09/30 06:40:12;;;;;;;8.82;7.00;;;;;;;14.69;100.00;96832.88;6338362;22;20176;-65
2023/09/30 06:42:39;;;;;;;10.90;7.38;;;;;;;14.74;100.00;96831.50;6340899;22;20071;-65
2023/09/30 06:45:05;;;;;;;10.57;7.38;;;;;;;14.82;100.00;96835.31;6340134;22;20049;-67
2023/09/30 06:47:33;;;;;;;12.18;7.70;;;;;;;14.88;100.00;96845.34;6310994;22;20010;-66
2023/09/30 06:50:00;;;;;;;8.95;7.45;;;;;;;14.95;100.00;96842.97;6338856;22;20022;-67
2023/09/30 06:54:57;;;;;;;11.05;7.20;;;;;;;15.14;100.00;96842.09;6337500;22;20070;-66
2023/09/30 06:57:23;;;;;;;10.63;7.57;;;;;;;15.28;100.00;96840.78;6340310;22;20351;-67
2023/09/30 06:59:50;;;;;;;10.82;7.70;;;;;;;15.42;100.00;96839.50;6340515;22;19999;-66
2023/09/30 07:02:15;;;;;;;8.93;7.05;;;;;;;15.58;100.00;96855.66;6340395;22;20006;-66
2023/09/30 07:04:40;;;;;;;10.70;7.25;;;;;;;15.69;100.00;96859.09;6339774;22;20002;-66
2023/09/30 07:07:06;;;;;;;9.30;7.07;;;;;;;15.76;100.00;96866.34;6340358;22;20041;-66
2023/09/30 07:09:31;;;;;;;11.25;7.47;;;;;;;15.87;100.00;96881.25;6340199;22;20070;-65
2023/09/30 07:11:57;;;;;;;10.90;7.43;;;;;;;15.99;100.00;96884.59;6340703;22;19999;-67
2023/09/30 07:14:22;;;;;;;10.35;7.68;;;;;;;16.11;100.00;96895.03;6340616;22;20071;-65
2023/09/30 07:16:48;;;;;;;8.95;6.72;;;;;;;16.18;100.00;96907.59;6340086;22;20563;-65
2023/09/30 07:19:13;;;;;;;7.60;6.60;;;;;;;16.26;100.00;96919.28;6339578;22;20021;-66
2023/09/30 07:21:39;;;;;;;8.57;6.03;;;;;;;16.30;100.00;96924.16;6339115;22;20005;-65
2023/09/30 07:24:05;;;;;;;11.60;6.53;;;;;;;16.28;100.00;96935.91;6339181;22;20620;-65
2023/09/30 07:26:30;;;;;;;7.13;6.25;;;;;;;16.29;100.00;96934.94;6340120;22;20010;-65
2023/09/30 07:28:56;;;;;;;7.05;5.68;;;;;;;16.32;100.00;96940.78;6339803;22;19998;-65
2023/09/30 07:31:23;;;;;;;7.90;5.80;;;;;;;16.36;100.00;96944.00;6338835;22;19996;-64
2023/09/30 07:33:48;;;;;;;9.30;6.50;;;;;;;16.43;100.00;96950.38;6340096;22;20027;-65
2023/09/30 07:36:14;;;;;;;7.35;6.50;;;;;;;16.50;100.00;96960.41;6340250;22;20048;-65
2023/09/30 07:38:40;;;;;;;7.65;6.38;;;;;;;16.60;100.00;96966.53;6340323;22;20003;-65
2023/09/30 07:41:06;;;;;;;9.02;6.45;;;;;;;16.61;100.00;96969.03;6342370;22;20003;-65
2023/09/30 07:43:31;;;;;;;7.68;5.55;;;;;;;16.61;100.00;96969.03;6342446;22;20006;-65
2023/09/30 07:45:56;;;;;;;10.85;6.40;;;;;;;16.63;100.00;96962.72;6342413;22;20026;-65
2023/09/30 07:48:22;;;;;;;9.27;6.22;;;;;;;16.67;100.00;96977.38;6341783;22;19994;-65
2023/09/30 07:50:47;;;;;;;9.68;6.38;;;;;;;16.75;100.00;96964.19;6341292;22;20005;-65
2023/09/30 07:53:13;;;;;;;9.77;6.18;;;;;;;16.82;100.00;96959.13;6341038;22;20028;-65
2023/09/30 07:55:39;;;;;;;8.73;6.22;;;;;;;16.93;100.00;96944.78;6313702;22;20541;-65
2023/09/30 07:58:05;;;;;;;13.07;6.18;;;;;;;17.10;100.00;96946.59;6340588;22;20006;-65
2023/09/30 08:00:30;;;;;;;10.32;5.85;;;;;;;17.27;100.00;96968.06;6338986;22;20380;-65
2023/09/30 08:02:56;;;;;;;7.80;6.50;;;;;;;17.32;100.00;96971.09;6340546;22;20003;-65
2023/09/30 08:05:21;;;;;;;9.05;5.70;;;;;;;17.36;100.00;96972.47;6340249;22;20083;-65
2023/09/30 08:07:47;;;;;;;6.43;5.28;;;;;;;17.32;100.00;96955.97;6339936;22;20029;-65
2023/09/30 08:10:13;;;;;;;11.70;6.35;;;;;;;17.30;100.00;96965.94;6311869;22;20005;-65
2023/09/30 08:12:40;;;;;;;8.15;5.80;;;;;;;17.30;100.00;96952.63;6339416;22;20056;-65
2023/09/30 08:15:06;;;;;;;7.95;5.88;;;;;;;17.39;100.00;96960.66;6307593;22;20322;-64
2023/09/30 08:17:33;;;;;;;10.02;6.57;;;;;;;17.47;100.00;96969.56;6309945;22;20010;-64
2023/09/30 08:19:59;;;;;;;8.63;6.03;;;;;;;17.55;100.00;96967.94;6309699;22;20007;-64
2023/09/30 08:22:27;;;;;;;10.38;6.10;;;;;;;17.61;100.00;96976.16;6309934;22;20033;-65
2023/09/30 08:24:53;;;;;;;9.48;6.40;;;;;;;17.66;100.00;96969.50;6309980;22;20034;-65
2023/09/30 08:27:19;;;;;;;8.25;5.90;;;;;;;17.72;100.00;96969.72;6310374;22;20056;-65
2023/09/30 08:29:44;;;;;;;10.82;7.15;;;;;;;17.84;100.00;96964.16;6310197;22;20477;-65
2023/09/30 08:32:10;;;;;;;9.82;6.13;;;;;;;17.90;100.00;96963.53;6310387;22;20484;-64
2023/09/30 08:34:35;;;;;;;8.77;6.68;;;;;;;18.04;100.00;96960.31;6310850;22;20003;-64
2023/09/30 08:37:00;;;;;;;10.90;6.85;;;;;;;18.21;100.00;96955.06;6310441;22;19999;-65
2023/09/30 08:39:28;;;;;;;12.98;6.47;;;;;;;18.32;100.00;96960.13;6310645;22;20011;-66
2023/09/30 08:41:56;;;;;;;8.50;6.80;;;;;;;18.39;100.00;96935.47;6310101;22;20024;-65
2023/09/30 08:44:21;;;;;;;12.75;6.60;;;;;;;18.46;100.00;96931.19;6304084;22;20010;-65
2023/09/30 08:46:47;;;;;;;13.77;7.03;;;;;;;18.56;100.00;96931.03;6310088;22;19996;-65
2023/09/30 08:49:15;;;;;;;7.72;6.70;;;;;;;18.66;100.00;96938.91;6279360;22;20003;-65
2023/09/30 08:51:40;;;;;;;11.55;6.47;;;;;;;18.81;100.00;96937.28;6309320;22;19999;-65
2023/09/30 08:54:06;;;;;;;10.95;6.22;;;;;;;19.00;100.00;96927.34;6306445;22;20329;-65
2023/09/30 08:56:35;;;;;;;9.40;6.38;;;;;;;19.12;100.00;96914.50;6307847;22;20328;-65
2023/09/30 08:59:02;;;;;;;11.30;6.18;;;;;;;19.23;100.00;96910.66;6308376;22;20705;-65
2023/09/30 09:01:29;;;;;;;10.07;6.68;;;;;;;19.36;100.00;96903.00;6309258;22;20005;-65
2023/09/30 09:03:55;;;;;;;8.48;5.63;;;;;;;19.44;100.00;96908.31;6307146;22;19999;-65
2023/09/30 09:06:25;;;;;;;7.85;6.28;;;;;;;19.38;100.00;96903.66;6309986;22;20351;-65
2023/09/30 09:08:51;;;;;;;11.05;6.38;;;;;;;19.35;100.00;96927.19;6308177;22;19999;-65
2023/09/30 09:11:20;;;;;;;9.35;5.90;;;;;;;19.35;100.00;96941.38;6307107;22;20082;-65
2023/09/30 09:13:55;;;;;;;7.65;6.30;;;;;;;19.32;100.00;96931.00;6320749;22;20018;-65
2023/09/30 09:16:22;;;;;;;11.23;6.75;;;;;;;19.25;100.00;96924.69;6338469;22;20037;-65
2023/09/30 09:18:48;;;;;;;8.07;6.65;;;;;;;19.32;100.00;96942.53;6340900;22;20439;-65
2023/09/30 09:21:17;;;;;;;6.78;5.63;;;;;;;19.37;100.00;96950.06;6341453;22;20003;-65
2023/09/30 09:23:46;;;;;;;11.75;6.88;;;;;;;19.54;100.00;96944.69;6341119;22;20381;-65
2023/09/30 09:26:22;;;;;;;11.13;6.80;;;;;;;19.49;100.00;96923.84;6339505;22;20056;-69
2023/09/30 09:28:48;;;;;;;14.02;8.15;;;;;;;19.46;100.00;96929.53;6339309;22;20335;-65
2023/09/30 09:31:23;;;;;;;9.23;6.05;;;;;;;19.58;100.00;96946.88;6338542;22;19998;-65
2023/09/30 09:33:50;;;;;;;9.13;6.68;;;;;;;19.67;100.00;96933.50;6339278;22;20002;-65
2023/09/30 09:36:16;;;;;;;10.02;6.63;;;;;;;19.80;100.00;96928.47;6310328;22;20006;-65
2023/09/30 09:38:52;;;;;;;11.98;6.25;;;;;;;19.89;100.00;96922.13;6340726;22;20006;-65
2023/09/30 09:41:18;;;;;;;6.93;5.22;;;;;;;19.89;100.00;96921.28;6341094;22;20450;-64
2023/09/30 09:43:44;;;;;;;7.50;5.65;;;;;;;19.78;100.00;96913.59;6339612;22;20026;-65
2023/09/30 09:46:10;;;;;;;11.07;5.75;;;;;;;19.80;100.00;96896.41;6335056;22;20006;-64
2023/09/30 09:48:36;;;;;;;7.45;5.05;;;;;;;19.78;100.00;96878.88;6339145;22;19995;-65
2023/09/30 09:51:05;;;;;;;9.48;4.78;;;;;;;19.95;100.00;96853.00;6337156;22;20010;-65
2023/09/30 09:53:33;;;;;;;5.25;4.47;;;;;;;20.09;100.00;96820.16;6340842;22;19999;-66
2023/09/30 09:55:59;;;;;;;5.88;4.20;;;;;;;20.13;100.00;96804.63;6339852;22;20101;-66
2023/09/30 09:58:26;;;;;;;8.90;4.80;;;;;;;20.01;100.00;96806.84;6340343;22;20002;-65
2023/09/30 10:00:52;;;;;;;9.45;4.68;;;;;;;19.92;100.00;96808.72;6335981;22;20078;-65
2023/09/30 10:03:18;;;;;;;7.50;4.45;;;;;;;19.92;100.00;96813.25;6338724;22;20009;-67
2023/09/30 10:05:45;;;;;;;5.78;3.72;;;;;;;20.23;100.00;96810.59;6340107;22;20081;-66
2023/09/30 10:08:17;;;;;;;8.25;4.28;;;;;;;20.44;100.00;96817.13;6340061;22;20425;-64
2023/09/30 10:10:45;;;;;;;5.60;4.10;;;;;;;20.51;100.00;96802.06;6339136;22;20007;-65
2023/09/30 10:13:49;;;;;;;8.57;4.97;;;;;;;20.47;100.00;96800.75;6339323;22;20010;-66
2023/09/30 10:16:36;;;;;;;6.50;3.88;;;;;;;20.35;100.00;96796.81;6339253;22;20485;-65
2023/09/30 10:19:11;;;;;;;5.53;4.30;;;;;;;20.33;100.00;96799.66;6339059;22;20002;-65
2023/09/30 10:21:39;;;;;;;7.93;5.18;;;;;;;20.36;100.00;96804.66;6338620;22;19995;-65
2023/09/30 10:24:22;;;;;;;4.93;3.85;;;;;;;20.35;100.00;96794.97;6340493;22;20484;-65
2023/09/30 10:27:29;;;;;;;6.15;4.40;;;;;;;20.47;100.00;96798.06;6341099;22;20012;-65
2023/09/30 10:30:22;;;;;;;5.72;4.10;;;;;;;20.59;100.00;96809.19;6340426;22;20501;-65
2023/09/30 10:32:50;;;;;;;5.85;4.20;;;;;;;20.60;100.00;96803.66;6340247;22;20056;-65
2023/09/30 10:35:31;;;;;;;5.43;4.20;;;;;;;20.56;100.00;96814.91;6340975;22;20006;-65
2023/09/30 10:38:21;;;;;;;7.88;3.85;;;;;;;20.53;100.00;96816.09;6340752;22;20010;-66
2023/09/30 10:40:51;;;;;;;6.43;4.18;;;;;;;20.60;100.00;96808.19;6340563;22;20010;-65
2023/09/30 10:43:32;;;;;;;6.43;4.00;;;;;;;20.64;100.00;96800.63;6340713;22;20381;-65
2023/09/30 10:45:58;;;;;;;6.03;4.60;;;;;;;20.75;100.00;96792.19;6341047;22;20370;-65
2023/09/30 10:48:34;;;;;;;7.63;4.75;;;;;;;20.81;100.00;96782.66;6340666;22;20053;-65
2023/09/30 10:51:23;;;;;;;6.75;4.70;;;;;;;20.76;100.00;96778.59;6341135;22;20351;-65
2023/09/30 10:53:57;;;;;;;4.13;3.75;;;;;;;20.77;100.00;96784.81;6340712;22;20029;-65
2023/09/30 10:56:23;;;;;;;8.38;4.60;;;;;;;20.79;100.00;96777.44;6340954;22;20318;-65
2023/09/30 10:58:53;;;;;;;6.60;4.63;;;;;;;20.78;100.00;96780.28;6340666;22;20003;-65
2023/09/30 11:01:23;;;;;;;6.70;4.60;;;;;;;20.80;100.00;96773.78;6340351;22;20335;-65
2023/09/30 11:03:53;;;;;;;6.85;4.28;;;;;;;20.84;100.00;96777.75;6340864;22;20074;-65
2023/09/30 11:06:21;;;;;;;5.28;4.38;;;;;;;21.02;100.00;96781.94;6340307;22;20313;-65
2023/09/30 11:08:56;;;;;;;5.85;4.38;;;;;;;21.26;100.00;96769.31;6340342;22;19999;-65
2023/09/30 11:11:39;;;;;;;8.48;4.15;;;;;;;21.29;100.00;96763.59;6340212;22;20003;-63
2023/09/30 11:14:31;;;;;;;6.30;4.22;;;;;;;21.46;100.00;96758.91;6340048;22;20023;-64
2023/09/30 11:16:59;;;;;;;6.32;4.00;;;;;;;21.47;100.00;96756.03;6340890;22;20423;-63
2023/09/30 11:19:24;;;;;;;7.22;4.63;;;;;;;21.43;100.00;96749.41;6340202;22;20006;-64
2023/09/30 11:21:52;;;;;;;5.38;4.20;;;;;;;21.40;100.00;96748.94;6340856;22;20431;-64
2023/09/30 11:24:18;;;;;;;6.20;4.05;;;;;;;21.42;100.00;96754.94;6340309;22;20052;-63
2023/09/30 11:26:47;;;;;;;5.90;4.35;;;;;;;21.51;100.00;96756.50;6340541;22;20002;-63